createdAt,value
2022-08-17T00:00:44.163Z,40.56
2022-08-17T00:01:51.889Z,40.53
2022-08-17T00:03:05.389Z,40.70
2022-08-17T00:04:13.830Z,40.73
2022-08-17T00:05:24.886Z,40.45
2022-08-17T00:06:33.493Z,40.38
2022-08-17T00:07:41.968Z,40.37
2022-08-17T00:08:54.354Z,40.46
2022-08-17T00:10:02.096Z,40.54
2022-08-17T00:11:12.495Z,40.55
2022-08-17T00:12:42.870Z,40.39
2022-08-17T00:13:52.158Z,40.38
2022-08-17T00:15:05.325Z,40.26
2022-08-17T00:16:56.156Z,40.25
2022-08-17T00:18:01.458Z,40.00
2022-08-17T00:19:11.533Z,39.85
2022-08-17T00:20:20.813Z,39.85
2022-08-17T00:22:33.039Z,39.78
2022-08-17T00:23:07.781Z,39.82
2022-08-17T00:24:15.209Z,39.76
2022-08-17T00:25:22.300Z,39.66
2022-08-17T00:26:34.590Z,39.57
2022-08-17T00:27:51.897Z,39.42
2022-08-17T00:29:02.039Z,39.27
2022-08-17T00:30:10.162Z,39.21
2022-08-17T00:31:17.553Z,39.24
2022-08-17T00:33:22.894Z,39.20
2022-08-17T00:33:52.490Z,39.06
2022-08-17T00:34:59.561Z,38.75
2022-08-17T00:36:10.704Z,38.72
2022-08-17T00:37:18.059Z,38.61
2022-08-17T00:38:25.384Z,38.55
2022-08-17T00:39:32.371Z,38.51
2022-08-17T00:40:50.274Z,38.50
2022-08-17T00:41:58.926Z,38.52
2022-08-17T00:43:20.686Z,38.36
2022-08-17T00:44:30.347Z,38.30
2022-08-17T00:45:38.892Z,38.34
2022-08-17T00:46:46.174Z,38.40
2022-08-17T00:47:53.112Z,38.52
2022-08-17T00:49:01.813Z,38.53
2022-08-17T00:50:11.744Z,38.44
2022-08-17T00:51:26.119Z,38.37
2022-08-17T00:52:39.293Z,38.26
2022-08-17T00:53:50.762Z,38.32
2022-08-17T00:54:59.292Z,38.34
2022-08-17T00:56:08.471Z,38.37
2022-08-17T00:57:25.843Z,38.20
2022-08-17T00:58:36.224Z,38.15
2022-08-17T00:59:55.996Z,38.20
2022-08-17T01:01:10.664Z,38.01
2022-08-17T01:02:17.609Z,37.94
2022-08-17T01:03:29.087Z,37.89
2022-08-17T01:04:36.088Z,37.74
2022-08-17T01:05:43.347Z,37.72
2022-08-17T01:06:52.365Z,37.76
2022-08-17T01:08:00.092Z,37.74
2022-08-17T01:09:07.247Z,37.75
2022-08-17T01:10:59.824Z,37.58
2022-08-17T01:11:42.693Z,37.50
2022-08-17T01:12:50.905Z,37.44
2022-08-17T01:13:58.451Z,37.47
2022-08-17T01:15:06.692Z,37.44
2022-08-17T01:16:28.393Z,37.30
2022-08-17T01:17:35.687Z,37.25
2022-08-17T01:18:43.608Z,37.28
2022-08-17T01:19:50.865Z,37.29
2022-08-17T01:20:59.268Z,37.21
2022-08-17T01:22:17.458Z,37.05
2022-08-17T01:23:25.784Z,36.98
2022-08-17T01:24:33.790Z,36.86
2022-08-17T01:25:41.640Z,36.81
2022-08-17T01:26:48.578Z,36.74
2022-08-17T01:27:56.170Z,36.57
2022-08-17T01:29:03.775Z,36.51
2022-08-17T01:30:57.852Z,36.49
2022-08-17T01:31:47.344Z,36.26
2022-08-17T01:32:54.744Z,36.01
2022-08-17T01:34:03.223Z,35.86
2022-08-17T01:35:10.731Z,35.71
2022-08-17T01:36:20.920Z,35.53
2022-08-17T01:37:35.922Z,35.41
2022-08-17T01:38:43.458Z,35.33
2022-08-17T01:39:56.457Z,35.39
2022-08-17T01:41:05.941Z,35.37
2022-08-17T01:42:42.180Z,35.30
2022-08-17T01:43:57.583Z,35.32
2022-08-17T01:45:24.314Z,35.26
2022-08-17T01:46:34.635Z,35.24
2022-08-17T01:47:43.204Z,35.12
2022-08-17T01:48:50.430Z,35.06
2022-08-17T01:49:58.003Z,35.02
2022-08-17T01:51:07.170Z,35.06
2022-08-17T01:52:14.296Z,35.02
2022-08-17T01:53:42.502Z,34.99
2022-08-17T01:54:49.495Z,34.96
2022-08-17T01:56:00.774Z,34.86
2022-08-17T01:57:08.449Z,34.78
2022-08-17T01:58:15.816Z,34.75
2022-08-17T01:59:23.097Z,34.68
2022-08-17T02:00:59.485Z,34.67
2022-08-17T02:01:58.028Z,34.58
2022-08-17T02:03:05.319Z,34.48
2022-08-17T02:04:12.932Z,34.42
2022-08-17T02:05:19.961Z,34.23
2022-08-17T02:06:28.336Z,34.10
2022-08-17T02:07:48.007Z,34.02
2022-08-17T02:09:06.539Z,33.93
2022-08-17T02:10:24.459Z,33.82
2022-08-17T02:11:41.582Z,33.74
2022-08-17T02:12:50.268Z,33.62
2022-08-17T02:14:02.485Z,33.50
2022-08-17T02:15:13.647Z,33.35
2022-08-17T02:16:23.828Z,33.22
2022-08-17T02:17:30.982Z,33.09
2022-08-17T02:18:39.600Z,32.92
2022-08-17T02:19:46.840Z,32.79
2022-08-17T02:20:54.339Z,32.62
2022-08-17T02:22:01.767Z,32.41
2022-08-17T02:23:10.285Z,32.24
2022-08-17T02:24:59.510Z,32.12
2022-08-17T02:25:50.168Z,31.97
2022-08-17T02:26:57.469Z,31.81
2022-08-17T02:28:06.178Z,31.73
2022-08-17T02:29:13.381Z,31.64
2022-08-17T02:31:00.667Z,31.59
2022-08-17T02:31:48.056Z,31.47
2022-08-17T02:32:55.779Z,31.38
2022-08-17T02:34:03.888Z,31.29
2022-08-17T02:35:12.002Z,31.21
2022-08-17T02:36:21.149Z,31.14
2022-08-17T02:37:31.476Z,31.06
2022-08-17T02:38:39.642Z,31.00
2022-08-17T02:39:47.416Z,30.92
2022-08-17T02:40:54.652Z,30.86
2022-08-17T02:42:05.582Z,30.80
2022-08-17T02:43:12.830Z,30.73
2022-08-17T02:44:39.010Z,30.67
2022-08-17T02:45:47.787Z,30.61
2022-08-17T02:46:54.885Z,30.57
2022-08-17T02:48:02.068Z,30.51
2022-08-17T02:49:09.953Z,30.45
2022-08-17T02:50:18.342Z,30.42
2022-08-17T02:51:25.865Z,30.36
2022-08-17T02:53:01.965Z,30.32
2022-08-17T02:54:41.608Z,30.23
2022-08-17T02:55:37.592Z,30.14
2022-08-17T02:56:45.032Z,30.09
2022-08-17T02:57:52.568Z,30.04
2022-08-17T02:59:00.260Z,29.99
2022-08-17T03:00:11.861Z,29.94
2022-08-17T03:01:19.000Z,29.89
2022-08-17T03:02:25.867Z,29.85
2022-08-17T03:03:33.122Z,29.79
2022-08-17T03:04:40.391Z,29.75
2022-08-17T03:05:49.831Z,29.71
2022-08-17T03:06:58.956Z,29.65
2022-08-17T03:08:11.677Z,29.59
2022-08-17T03:09:21.095Z,29.53
2022-08-17T03:10:28.096Z,29.49
2022-08-17T03:11:35.301Z,29.44
2022-08-17T03:12:43.455Z,29.36
2022-08-17T03:13:50.666Z,29.28
2022-08-17T03:14:57.627Z,29.20
2022-08-17T03:16:04.875Z,29.12
2022-08-17T03:17:17.161Z,29.05
2022-08-17T03:18:26.980Z,28.96
2022-08-17T03:19:34.470Z,28.88
2022-08-17T03:20:47.563Z,28.81
2022-08-17T03:21:55.550Z,28.76
2022-08-17T03:23:03.299Z,28.69
2022-08-17T03:24:10.892Z,28.63
2022-08-17T03:25:20.372Z,28.57
2022-08-17T03:26:30.500Z,28.53
2022-08-17T03:27:38.190Z,28.48
2022-08-17T03:28:50.099Z,28.42
2022-08-17T03:29:57.413Z,28.37
2022-08-17T03:31:04.627Z,28.32
2022-08-17T03:32:15.617Z,28.26
2022-08-17T03:33:23.033Z,28.22
2022-08-17T03:34:30.060Z,28.18
2022-08-17T03:35:42.958Z,28.15
2022-08-17T03:36:50.920Z,28.10
2022-08-17T03:38:00.647Z,28.08
2022-08-17T03:39:09.337Z,28.06
2022-08-17T03:40:18.501Z,28.03
2022-08-17T03:41:47.130Z,28.00
2022-08-17T03:42:56.064Z,27.96
2022-08-17T03:44:04.403Z,27.94
2022-08-17T03:45:40.311Z,27.92
2022-08-17T03:47:08.460Z,27.87
2022-08-17T03:48:34.175Z,27.83
2022-08-17T03:50:00.848Z,27.77
2022-08-17T03:51:37.992Z,27.72
2022-08-17T03:53:04.666Z,27.64
2022-08-17T03:54:31.789Z,27.57
2022-08-17T03:56:03.183Z,27.51
2022-08-17T03:57:32.798Z,27.43
2022-08-17T03:58:43.542Z,27.37
2022-08-17T03:59:52.030Z,27.32
2022-08-17T04:01:01.616Z,27.28
2022-08-17T04:02:16.296Z,27.24
2022-08-17T04:03:23.758Z,27.19
2022-08-17T04:04:33.766Z,27.15
2022-08-17T04:05:41.336Z,27.11
2022-08-17T04:06:48.634Z,27.07
2022-08-17T04:07:55.216Z,27.02
2022-08-17T04:09:02.469Z,26.98
2022-08-17T04:10:10.091Z,26.92
2022-08-17T04:11:17.359Z,26.87
2022-08-17T04:12:25.010Z,26.84
2022-08-17T04:13:32.068Z,26.81
2022-08-17T04:14:53.382Z,26.76
2022-08-17T04:16:03.703Z,26.71
2022-08-17T04:17:13.208Z,26.67
2022-08-17T04:18:21.453Z,26.63
2022-08-17T04:19:29.186Z,26.59
2022-08-17T04:20:36.781Z,26.56
2022-08-17T04:21:45.145Z,26.53
2022-08-17T04:23:13.545Z,26.48
2022-08-17T04:24:21.568Z,26.44
2022-08-17T04:25:29.692Z,26.41
2022-08-17T04:26:53.972Z,26.37
2022-08-17T04:28:04.095Z,26.30
2022-08-17T04:29:16.044Z,26.25
2022-08-17T04:30:24.462Z,26.21
2022-08-17T04:31:33.694Z,26.17
2022-08-17T04:33:06.019Z,26.13
2022-08-17T04:34:15.790Z,26.08
2022-08-17T04:35:30.184Z,26.03
2022-08-17T04:36:40.361Z,26.00
2022-08-17T04:37:58.450Z,25.95
2022-08-17T04:39:07.122Z,25.93
2022-08-17T04:40:47.653Z,25.90
2022-08-17T04:42:18.807Z,25.84
2022-08-17T04:43:27.895Z,25.79
2022-08-17T04:44:37.661Z,25.76
2022-08-17T04:45:55.632Z,25.73
2022-08-17T04:47:05.798Z,25.71
2022-08-17T04:48:13.718Z,25.69
2022-08-17T04:49:22.174Z,25.67
2022-08-17T04:50:30.238Z,25.65
2022-08-17T04:51:45.481Z,25.63
2022-08-17T04:53:03.968Z,25.58
2022-08-17T04:54:15.109Z,25.56
2022-08-17T04:55:23.483Z,25.53
2022-08-17T04:56:30.643Z,25.50
2022-08-17T04:57:41.810Z,25.48
2022-08-17T04:58:54.377Z,25.45
2022-08-17T05:00:02.816Z,25.44
2022-08-17T05:01:11.912Z,25.42
2022-08-17T05:02:20.964Z,25.41
2022-08-17T05:03:28.436Z,25.39
2022-08-17T05:04:36.087Z,25.37
2022-08-17T05:05:51.625Z,25.35
2022-08-17T05:07:00.611Z,25.32
2022-08-17T05:08:09.527Z,25.30
2022-08-17T05:09:19.622Z,25.27
2022-08-17T05:10:28.462Z,25.26
2022-08-17T05:11:35.942Z,25.24
2022-08-17T05:12:44.174Z,25.23
2022-08-17T05:13:53.213Z,25.23
2022-08-17T05:15:01.948Z,25.22
2022-08-17T05:16:10.756Z,25.22
2022-08-17T05:17:18.990Z,25.22
2022-08-17T05:18:27.085Z,25.22
2022-08-17T05:19:34.992Z,25.21
2022-08-17T05:20:45.457Z,25.20
2022-08-17T05:21:54.198Z,25.17
2022-08-17T05:23:05.926Z,25.10
2022-08-17T05:24:41.251Z,25.03
2022-08-17T05:25:50.387Z,24.94
2022-08-17T05:27:06.022Z,24.86
2022-08-17T05:28:16.020Z,24.83
2022-08-17T05:29:35.334Z,24.82
2022-08-17T05:30:44.542Z,24.80
2022-08-17T05:31:52.565Z,24.78
2022-08-17T05:33:07.478Z,24.76
2022-08-17T05:34:15.555Z,24.73
2022-08-17T05:35:23.775Z,24.70
2022-08-17T05:36:43.660Z,24.67
2022-08-17T05:37:52.902Z,24.63
2022-08-17T05:39:01.553Z,24.59
2022-08-17T05:40:11.683Z,24.55
2022-08-17T05:41:20.256Z,24.51
2022-08-17T05:42:28.388Z,24.47
2022-08-17T05:43:38.168Z,24.43
2022-08-17T05:44:45.678Z,24.39
2022-08-17T05:46:06.329Z,24.36
2022-08-17T05:47:14.819Z,24.35
2022-08-17T05:48:36.741Z,24.33
2022-08-17T05:49:49.325Z,24.32
2022-08-17T05:51:07.094Z,24.33
2022-08-17T05:52:36.608Z,24.32
2022-08-17T05:54:01.032Z,24.28
2022-08-17T05:55:18.475Z,24.25
2022-08-17T05:56:48.138Z,24.21
2022-08-17T05:58:01.511Z,24.15
2022-08-17T05:59:12.895Z,24.09
2022-08-17T06:00:30.397Z,24.04
2022-08-17T06:02:15.066Z,23.98
2022-08-17T06:03:29.207Z,23.87
2022-08-17T06:04:47.174Z,23.81
2022-08-17T06:06:16.884Z,23.77
2022-08-17T06:07:26.583Z,23.72
2022-08-17T06:08:53.457Z,23.67
2022-08-17T06:10:08.624Z,23.62
2022-08-17T06:11:30.430Z,23.58
2022-08-17T06:13:12.782Z,23.54
2022-08-17T06:14:32.475Z,23.50
2022-08-17T06:15:57.456Z,23.47
2022-08-17T06:17:11.263Z,23.45
2022-08-17T06:18:19.250Z,23.44
2022-08-17T06:19:50.354Z,23.43
2022-08-17T06:21:06.185Z,23.40
2022-08-17T06:22:16.623Z,23.40
2022-08-17T06:23:31.814Z,23.44
2022-08-17T06:25:27.882Z,23.47
2022-08-17T06:26:42.746Z,23.47
2022-08-17T06:27:57.405Z,23.49
2022-08-17T06:29:26.562Z,23.53
2022-08-17T06:30:59.294Z,23.55
2022-08-17T06:32:10.196Z,23.57
2022-08-17T06:33:26.358Z,23.56
2022-08-17T06:34:35.278Z,23.55
2022-08-17T06:36:17.289Z,23.55
2022-08-17T06:37:43.012Z,23.55
2022-08-17T06:39:10.510Z,23.53
2022-08-17T06:40:18.616Z,23.51
2022-08-17T06:41:54.205Z,23.50
2022-08-17T06:43:08.426Z,23.47
2022-08-17T06:44:43.551Z,23.42
2022-08-17T06:46:01.584Z,23.32
2022-08-17T06:47:28.931Z,23.23
2022-08-17T06:48:59.179Z,23.15
2022-08-17T06:50:10.659Z,23.06
2022-08-17T06:51:33.190Z,23.01
2022-08-17T06:53:22.185Z,22.95
2022-08-17T06:54:57.216Z,22.87
2022-08-17T06:56:10.313Z,22.78
2022-08-17T06:57:22.622Z,22.73
2022-08-17T06:58:33.599Z,22.67
2022-08-17T07:00:03.190Z,22.63
2022-08-17T07:01:17.869Z,22.57
2022-08-17T07:02:53.196Z,22.52
2022-08-17T07:04:20.175Z,22.46
2022-08-17T07:05:46.326Z,22.40
2022-08-17T07:07:39.642Z,22.36
2022-08-17T07:08:58.425Z,22.28
2022-08-17T07:10:09.295Z,22.22
2022-08-17T07:11:23.427Z,22.20
2022-08-17T07:12:39.324Z,22.18
2022-08-17T07:14:13.953Z,22.17
2022-08-17T07:15:30.374Z,22.15
2022-08-17T07:16:42.704Z,22.13
2022-08-17T07:17:50.523Z,22.11
2022-08-17T07:18:58.874Z,22.11
2022-08-17T07:20:10.682Z,22.11
2022-08-17T07:21:51.475Z,22.11
2022-08-17T07:23:02.827Z,22.13
2022-08-17T07:24:29.670Z,22.15
2022-08-17T07:25:38.510Z,22.19
2022-08-17T07:26:51.396Z,22.22
2022-08-17T07:28:02.366Z,22.24
2022-08-17T07:29:15.843Z,22.27
2022-08-17T07:30:28.233Z,22.32
2022-08-17T07:31:35.272Z,22.35
2022-08-17T07:33:03.534Z,22.37
2022-08-17T07:34:15.882Z,22.41
2022-08-17T07:35:40.841Z,22.43
2022-08-17T07:36:55.574Z,22.45
2022-08-17T07:38:24.234Z,22.46
2022-08-17T07:39:33.586Z,22.46
2022-08-17T07:40:46.997Z,22.44
2022-08-17T07:41:58.957Z,22.42
2022-08-17T07:43:08.641Z,22.39
2022-08-17T07:44:21.756Z,22.39
2022-08-17T07:45:47.205Z,22.41
2022-08-17T07:47:14.524Z,22.40
2022-08-17T07:48:28.804Z,22.36
2022-08-17T07:49:41.494Z,22.33
2022-08-17T07:50:49.600Z,22.31
2022-08-17T07:52:00.472Z,22.28
2022-08-17T07:53:28.474Z,22.27
2022-08-17T07:54:39.712Z,22.27
2022-08-17T07:55:46.874Z,22.25
2022-08-17T07:57:21.303Z,22.23
2022-08-17T07:58:28.342Z,22.19
2022-08-17T07:59:39.356Z,22.15
2022-08-17T08:01:11.294Z,22.12
2022-08-17T08:02:35.796Z,22.08
2022-08-17T08:03:44.293Z,22.04
2022-08-17T08:05:01.863Z,22.01
2022-08-17T08:06:23.553Z,22.00
2022-08-17T08:07:37.430Z,21.99
2022-08-17T08:08:44.517Z,21.96
2022-08-17T08:10:11.382Z,21.95
2022-08-17T08:11:30.381Z,21.91
2022-08-17T08:12:47.172Z,21.88
2022-08-17T08:13:54.183Z,21.86
2022-08-17T08:15:16.753Z,21.86
2022-08-17T08:16:30.409Z,21.86
2022-08-17T08:17:47.544Z,21.87
2022-08-17T08:18:59.721Z,21.89
2022-08-17T08:20:37.874Z,21.87
2022-08-17T08:21:52.184Z,21.84
2022-08-17T08:23:21.348Z,21.79
2022-08-17T08:24:38.324Z,21.75
2022-08-17T08:26:18.586Z,21.71
2022-08-17T08:27:47.448Z,21.65
2022-08-17T08:29:24.813Z,21.60
2022-08-17T08:30:33.669Z,21.56
2022-08-17T08:32:18.783Z,21.53
2022-08-17T08:33:39.505Z,21.49
2022-08-17T08:35:11.701Z,21.45
2022-08-17T08:36:57.108Z,21.41
2022-08-17T08:38:42.134Z,21.42
2022-08-17T08:40:12.231Z,21.40
2022-08-17T08:41:37.390Z,21.39
2022-08-17T08:42:54.873Z,21.38
2022-08-17T08:44:11.292Z,21.36
2022-08-17T08:45:23.134Z,21.34
2022-08-17T08:47:01.510Z,21.33
2022-08-17T08:48:56.550Z,21.31
2022-08-17T08:50:37.745Z,21.33
2022-08-17T08:51:49.145Z,21.34
2022-08-17T08:53:24.924Z,21.35
2022-08-17T08:54:41.386Z,21.37
2022-08-17T08:56:02.336Z,21.37
2022-08-17T08:57:29.007Z,21.39
2022-08-17T08:59:03.224Z,21.40
2022-08-17T09:00:18.451Z,21.41
2022-08-17T09:01:47.770Z,21.44
2022-08-17T09:03:13.108Z,21.46
2022-08-17T09:05:13.003Z,21.48
2022-08-17T09:06:37.431Z,21.49
2022-08-17T09:07:59.788Z,21.49
2022-08-17T09:09:28.456Z,21.50
2022-08-17T09:11:04.198Z,21.51
2022-08-17T09:12:34.968Z,21.52
2022-08-17T09:13:46.436Z,21.54
2022-08-17T09:15:24.398Z,21.55
2022-08-17T09:16:44.747Z,21.57
2022-08-17T09:19:01.517Z,21.57
2022-08-17T09:20:14.477Z,21.57
2022-08-17T09:21:48.030Z,21.57
2022-08-17T09:23:11.099Z,21.57
2022-08-17T09:24:35.121Z,21.58
2022-08-17T09:25:53.817Z,21.60
2022-08-17T09:27:15.127Z,21.61
2022-08-17T09:28:25.489Z,21.61
2022-08-17T09:29:36.249Z,21.64
2022-08-17T09:30:48.138Z,21.66
2022-08-17T09:32:06.649Z,21.67
2022-08-17T09:33:14.930Z,21.67
2022-08-17T09:34:48.438Z,21.68
2022-08-17T09:36:34.868Z,21.69
2022-08-17T09:38:14.129Z,21.71
2022-08-17T09:39:32.896Z,21.73
2022-08-17T09:41:06.160Z,21.74
2022-08-17T09:42:16.380Z,21.75
2022-08-17T09:43:46.600Z,21.77
2022-08-17T09:45:05.760Z,21.79
2022-08-17T09:46:20.369Z,21.79
2022-08-17T09:47:27.819Z,21.81
2022-08-17T09:48:49.490Z,21.81
2022-08-17T09:50:12.889Z,21.82
2022-08-17T09:51:31.700Z,21.85
2022-08-17T09:52:38.709Z,21.86
2022-08-17T09:53:46.028Z,21.86
2022-08-17T09:54:54.627Z,21.85
2022-08-17T09:56:25.499Z,21.84
2022-08-17T09:58:13.209Z,21.81
2022-08-17T09:59:38.159Z,21.78
2022-08-17T10:00:50.544Z,21.76
2022-08-17T10:02:20.070Z,21.75
2022-08-17T10:03:57.425Z,21.73
2022-08-17T10:05:23.189Z,21.71
2022-08-17T10:06:33.061Z,21.70
2022-08-17T10:07:48.204Z,21.70
2022-08-17T10:09:09.901Z,21.71
2022-08-17T10:10:38.696Z,21.70
2022-08-17T10:12:33.528Z,21.69
2022-08-17T10:13:52.763Z,21.67
2022-08-17T10:15:09.426Z,21.64
2022-08-17T10:16:34.983Z,21.61
2022-08-17T10:18:08.981Z,21.59
2022-08-17T10:19:25.973Z,21.58
2022-08-17T10:21:17.002Z,21.56
2022-08-17T10:23:07.377Z,21.54
2022-08-17T10:25:20.879Z,21.52
2022-08-17T10:26:26.163Z,21.49
2022-08-17T10:27:45.199Z,21.46
2022-08-17T10:29:08.352Z,21.42
2022-08-17T10:30:15.695Z,21.40
2022-08-17T10:31:34.732Z,21.38
2022-08-17T10:32:51.783Z,21.36
2022-08-17T10:34:27.132Z,21.35
2022-08-17T10:35:35.239Z,21.33
2022-08-17T10:36:51.232Z,21.29
2022-08-17T10:38:35.181Z,21.26
2022-08-17T10:40:24.837Z,21.21
2022-08-17T10:41:44.997Z,21.18
2022-08-17T10:43:30.611Z,21.14
2022-08-17T10:44:57.851Z,21.08
2022-08-17T10:46:34.830Z,21.02
2022-08-17T10:48:05.043Z,20.96
2022-08-17T10:49:24.099Z,20.96
2022-08-17T10:50:57.450Z,20.96
2022-08-17T10:52:25.216Z,20.95
2022-08-17T10:53:35.370Z,20.93
2022-08-17T10:54:50.073Z,20.92
2022-08-17T10:56:15.862Z,20.92
2022-08-17T10:57:29.004Z,20.94
2022-08-17T10:58:56.066Z,20.95
2022-08-17T11:00:27.542Z,20.94
2022-08-17T11:01:41.432Z,20.93
2022-08-17T11:02:57.518Z,20.94
2022-08-17T11:04:20.083Z,20.95
2022-08-17T11:05:34.713Z,20.96
2022-08-17T11:07:03.422Z,20.97
2022-08-17T11:08:11.788Z,20.99
2022-08-17T11:09:28.965Z,21.00
2022-08-17T11:10:51.839Z,21.02
2022-08-17T11:12:17.681Z,21.03
2022-08-17T11:13:32.543Z,21.04
2022-08-17T11:15:03.483Z,21.04
2022-08-17T11:16:36.603Z,21.05
2022-08-17T11:18:20.959Z,21.08
2022-08-17T11:19:50.028Z,21.13
2022-08-17T11:21:01.493Z,21.15
2022-08-17T11:22:14.133Z,21.17
2022-08-17T11:23:56.230Z,21.18
2022-08-17T11:25:19.193Z,21.18
2022-08-17T11:26:28.636Z,21.20
2022-08-17T11:27:36.260Z,21.19
2022-08-17T11:28:52.567Z,21.18
2022-08-17T11:30:02.909Z,21.14
2022-08-17T11:31:12.063Z,21.11
2022-08-17T11:32:47.739Z,21.10
2022-08-17T11:33:59.060Z,21.08
2022-08-17T11:35:38.093Z,21.07
2022-08-17T11:37:13.492Z,21.06
2022-08-17T11:38:28.420Z,21.06
2022-08-17T11:39:57.132Z,21.04
2022-08-17T11:41:29.104Z,21.04
2022-08-17T11:42:48.632Z,21.01
2022-08-17T11:44:08.233Z,20.99
2022-08-17T11:45:32.108Z,20.98
2022-08-17T11:47:18.792Z,20.98
2022-08-17T11:48:56.591Z,20.97
2022-08-17T11:50:48.664Z,20.94
2022-08-17T11:51:58.002Z,20.93
2022-08-17T11:53:06.843Z,20.92
2022-08-17T11:54:37.352Z,20.91
2022-08-17T11:55:45.056Z,20.87
2022-08-17T11:56:52.911Z,20.82
2022-08-17T11:58:02.951Z,20.78
2022-08-17T11:59:40.672Z,20.74
2022-08-17T12:00:48.002Z,20.67
2022-08-17T12:01:56.911Z,20.62
2022-08-17T12:03:33.500Z,20.56
2022-08-17T12:04:40.788Z,20.49
2022-08-17T12:05:48.632Z,20.43
2022-08-17T12:07:28.173Z,20.38
2022-08-17T12:08:35.643Z,20.30
2022-08-17T12:09:44.742Z,20.24
2022-08-17T12:12:11.350Z,20.22
2022-08-17T12:12:50.778Z,20.18
2022-08-17T12:13:59.676Z,20.15
2022-08-17T12:15:10.937Z,20.14
2022-08-17T12:16:20.239Z,20.11
2022-08-17T12:17:39.556Z,20.10
2022-08-17T12:18:59.861Z,20.10
2022-08-17T12:20:14.640Z,20.09
2022-08-17T12:21:46.602Z,20.07
2022-08-17T12:23:02.756Z,20.04
2022-08-17T12:24:19.552Z,20.03
2022-08-17T12:25:52.585Z,20.02
2022-08-17T12:27:02.174Z,20.01
2022-08-17T12:28:33.351Z,19.99
2022-08-17T12:29:43.741Z,19.96
2022-08-17T12:30:52.422Z,19.95
2022-08-17T12:32:00.686Z,19.94
2022-08-17T12:33:25.750Z,19.95
2022-08-17T12:34:41.960Z,19.96
2022-08-17T12:35:49.833Z,19.97
2022-08-17T12:37:03.502Z,19.97
2022-08-17T12:38:30.386Z,19.96
2022-08-17T12:39:41.851Z,19.92
2022-08-17T12:40:58.208Z,19.89
2022-08-17T12:42:06.784Z,19.87
2022-08-17T12:43:28.683Z,19.86
2022-08-17T12:44:46.119Z,19.85
2022-08-17T12:46:13.455Z,19.84
2022-08-17T12:47:23.838Z,19.83
2022-08-17T12:48:33.309Z,19.84
2022-08-17T12:49:43.917Z,19.85
2022-08-17T12:50:51.875Z,19.86
2022-08-17T12:52:24.625Z,19.86
2022-08-17T12:53:34.093Z,19.86
2022-08-17T12:55:04.345Z,19.86
2022-08-17T12:56:13.744Z,19.85
2022-08-17T12:57:41.616Z,19.85
2022-08-17T12:58:56.972Z,19.84
2022-08-17T13:00:47.518Z,19.82
2022-08-17T13:01:55.532Z,19.80
2022-08-17T13:03:18.625Z,19.77
2022-08-17T13:04:29.634Z,19.76
2022-08-17T13:05:39.832Z,19.74
2022-08-17T13:06:52.665Z,19.74
2022-08-17T13:08:29.905Z,19.72
2022-08-17T13:09:40.269Z,19.72
2022-08-17T13:11:06.286Z,19.70
2022-08-17T13:12:14.689Z,19.69
2022-08-17T13:13:26.658Z,19.69
2022-08-17T13:14:35.023Z,19.69
2022-08-17T13:15:54.047Z,19.70
2022-08-17T13:17:02.788Z,19.70
2022-08-17T13:18:30.016Z,19.69
2022-08-17T13:19:41.529Z,19.69
2022-08-17T13:20:55.270Z,19.70
2022-08-17T13:22:04.687Z,19.73
2022-08-17T13:23:15.199Z,19.74
2022-08-17T13:24:26.547Z,19.76
2022-08-17T13:25:34.046Z,19.81
2022-08-17T13:26:44.955Z,19.84
2022-08-17T13:27:54.816Z,19.88
2022-08-17T13:29:03.503Z,19.90
2022-08-17T13:30:13.735Z,19.93
2022-08-17T13:31:31.636Z,19.97
2022-08-17T13:32:44.029Z,20.07
2022-08-17T13:33:53.110Z,20.19
2022-08-17T13:35:16.269Z,20.32
2022-08-17T13:36:36.865Z,20.47
2022-08-17T13:38:00.635Z,20.60
2022-08-17T13:39:10.754Z,20.71
2022-08-17T13:40:21.872Z,20.74
2022-08-17T13:41:38.090Z,20.76
2022-08-17T13:42:51.935Z,20.84
2022-08-17T13:44:02.234Z,21.05
2022-08-17T13:45:36.578Z,21.30
2022-08-17T13:46:56.983Z,21.63
2022-08-17T13:48:30.290Z,21.93
2022-08-17T13:49:48.325Z,22.27
2022-08-17T13:50:58.075Z,22.51
2022-08-17T13:52:07.072Z,22.75
2022-08-17T13:53:31.189Z,22.97
2022-08-17T13:54:40.568Z,23.20
2022-08-17T13:55:53.586Z,23.40
2022-08-17T13:57:22.852Z,23.58
2022-08-17T13:58:41.264Z,23.73
2022-08-17T13:59:54.867Z,23.80
2022-08-17T14:01:37.072Z,23.76
2022-08-17T14:02:45.257Z,23.64
2022-08-17T14:03:53.584Z,23.55
2022-08-17T14:05:06.199Z,23.48
2022-08-17T14:06:52.477Z,23.46
2022-08-17T14:07:45.595Z,23.50
2022-08-17T14:08:54.043Z,23.66
2022-08-17T14:10:05.382Z,23.94
2022-08-17T14:11:14.217Z,24.26
2022-08-17T14:12:23.374Z,24.55
2022-08-17T14:13:31.515Z,24.90
2022-08-17T14:14:44.470Z,25.16
2022-08-17T14:15:54.738Z,25.42
2022-08-17T14:17:04.806Z,25.72
2022-08-17T14:18:12.471Z,26.01
2022-08-17T14:19:21.015Z,26.24
2022-08-17T14:20:29.492Z,26.45
2022-08-17T14:21:37.525Z,26.58
2022-08-17T14:22:47.095Z,26.74
2022-08-17T14:23:55.218Z,26.83
2022-08-17T14:25:03.491Z,27.00
2022-08-17T14:26:11.998Z,27.11
2022-08-17T14:27:21.175Z,27.23
2022-08-17T14:28:29.205Z,27.41
2022-08-17T14:29:37.505Z,27.55
2022-08-17T14:30:45.437Z,27.73
2022-08-17T14:31:54.612Z,27.86
2022-08-17T14:33:03.469Z,27.99
2022-08-17T14:34:15.466Z,28.21
2022-08-17T14:35:25.736Z,28.38
2022-08-17T14:36:33.857Z,28.46
2022-08-17T14:37:41.356Z,28.58
2022-08-17T14:38:49.430Z,28.67
2022-08-17T14:40:01.743Z,28.71
2022-08-17T14:41:10.081Z,28.79
2022-08-17T14:42:19.014Z,28.91
2022-08-17T14:43:27.266Z,29.00
2022-08-17T14:44:35.564Z,29.10
2022-08-17T14:45:43.996Z,29.16
2022-08-17T14:46:52.553Z,29.17
2022-08-17T14:48:00.939Z,29.17
2022-08-17T14:49:10.090Z,29.24
2022-08-17T14:50:23.538Z,29.32
2022-08-17T14:51:31.836Z,29.36
2022-08-17T14:52:42.276Z,29.45
2022-08-17T14:53:50.750Z,29.58
2022-08-17T14:54:58.367Z,29.63
2022-08-17T14:56:07.030Z,29.68
2022-08-17T14:57:33.009Z,29.75
2022-08-17T14:58:44.936Z,29.83
2022-08-17T14:59:57.694Z,29.98
2022-08-17T15:01:08.896Z,30.19
2022-08-17T15:02:19.748Z,30.52
2022-08-17T15:03:27.337Z,30.77
2022-08-17T15:04:34.519Z,30.93
2022-08-17T15:05:42.662Z,30.99
2022-08-17T15:06:50.417Z,30.98
2022-08-17T15:07:58.155Z,30.86
2022-08-17T15:09:05.854Z,30.76
2022-08-17T15:10:15.362Z,30.76
2022-08-17T15:11:23.507Z,30.66
2022-08-17T15:12:34.229Z,30.58
2022-08-17T15:13:51.954Z,30.54
2022-08-17T15:15:04.771Z,30.54
2022-08-17T15:16:16.019Z,30.57
2022-08-17T15:17:25.421Z,30.60
2022-08-17T15:18:54.062Z,30.68
2022-08-17T15:20:01.574Z,30.77
2022-08-17T15:21:11.595Z,30.88
2022-08-17T15:22:25.945Z,30.88
2022-08-17T15:23:36.638Z,30.92
2022-08-17T15:24:44.530Z,31.07
2022-08-17T15:25:52.617Z,31.14
2022-08-17T15:27:01.105Z,31.20
2022-08-17T15:28:09.136Z,31.19
2022-08-17T15:29:17.893Z,31.17
2022-08-17T15:30:27.077Z,31.18
2022-08-17T15:31:34.704Z,31.17
2022-08-17T15:32:47.521Z,31.12
2022-08-17T15:34:00.279Z,31.16
2022-08-17T15:35:09.305Z,31.39
2022-08-17T15:36:17.910Z,31.66
2022-08-17T15:37:27.071Z,31.82
2022-08-17T15:38:40.657Z,31.95
2022-08-17T15:39:52.615Z,32.07
2022-08-17T15:41:01.100Z,32.18
2022-08-17T15:42:10.226Z,32.22
2022-08-17T15:43:27.291Z,32.23
2022-08-17T15:44:35.770Z,32.12
2022-08-17T15:45:44.266Z,32.13
2022-08-17T15:46:52.176Z,32.30
2022-08-17T15:47:59.987Z,32.40
2022-08-17T15:49:07.866Z,32.37
2022-08-17T15:50:16.166Z,32.44
2022-08-17T15:51:26.457Z,32.56
2022-08-17T15:52:37.268Z,32.60
2022-08-17T15:53:54.839Z,32.74
2022-08-17T15:55:03.468Z,33.04
2022-08-17T15:56:11.428Z,33.14
2022-08-17T15:57:20.322Z,33.10
2022-08-17T15:58:33.596Z,33.14
2022-08-17T15:59:43.362Z,33.41
2022-08-17T16:01:14.349Z,33.60
2022-08-17T16:03:20.362Z,33.81
2022-08-17T16:04:29.722Z,33.99
2022-08-17T16:05:38.023Z,34.34
2022-08-17T16:06:48.786Z,34.63
2022-08-17T16:07:57.418Z,34.82
2022-08-17T16:09:05.570Z,34.88
2022-08-17T16:10:18.663Z,34.79
2022-08-17T16:11:28.309Z,34.63
2022-08-17T16:12:36.949Z,34.53
2022-08-17T16:13:51.293Z,34.52
2022-08-17T16:15:04.936Z,34.54
2022-08-17T16:16:13.111Z,34.60
2022-08-17T16:17:40.206Z,34.70
2022-08-17T16:18:54.705Z,34.64
2022-08-17T16:20:08.789Z,34.68
2022-08-17T16:21:28.325Z,34.59
2022-08-17T16:22:38.640Z,34.66